Time;durP1;ratioP1;P1;durP2;ratioP2;P2;SDS_P1;SDS_P2;PMS_P1;PMS_P2;Temp;Humidity;BMP_temperature;BMP_pressure;BME280_temperature;BME280_humidity;BME280_pressure;Samples;Min_cycle;Max_cycle;Signal;HPM_P1;HPM_P2
2021/09/22 00:00:20;;;;;;;;;;;;;;;9.49;95.15;99627.03;112270;1196;61062;-84
2021/09/22 00:03:00;;;;;;;;;;;;;;;9.49;95.32;99625.65;112247;1195;61000;-83
2021/09/22 00:05:28;;;;;;;;;;;;;;;9.47;95.40;99627.14;112246;1195;64396;-83
2021/09/22 00:07:56;;;;;;;;;;;;;;;9.47;95.66;99621.30;112281;1195;61026;-83
2021/09/22 00:10:23;;;;;;;;;;;;;;;9.47;95.79;99619.86;112227;1196;62524;-83
2021/09/22 00:12:50;;;;;;;;;;;;;;;9.46;95.72;99613.19;111895;1195;61087;-82
2021/09/22 00:15:19;;;;;;;;;;;;;;;9.47;95.77;99608.73;112066;1194;61752;-83
2021/09/22 00:17:46;;;;;;;;;;;;;;;9.46;96.00;99602.73;112130;1196;66022;-82
2021/09/22 00:20:15;;;;;;;;;;;;;;;9.44;96.20;99602.45;111976;1195;61071;-84
2021/09/22 00:22:42;;;;;;;;;;;;;;;9.42;96.27;99604.17;112140;1196;62653;-82
2021/09/22 00:25:10;;;;;;;;;;;;;;;9.42;96.38;99599.04;112060;1195;61071;-83
2021/09/22 00:27:37;;;;;;;;;;;;;;;9.41;96.53;99595.16;112140;1196;61080;-84
2021/09/22 00:30:05;;;;;;;;;;;;;;;9.40;96.51;99596.83;112114;1195;65670;-84
2021/09/22 00:32:32;;;;;;;;;;;;;;;9.39;96.49;99591.19;112119;1196;61059;-82
2021/09/22 00:34:59;;;;;;;;;;;;;;;9.41;96.55;99585.95;112108;1195;63208;-85
2021/09/22 00:37:26;;;;;;;;;;;;;;;9.39;96.68;99591.37;112203;1196;60989;-82
2021/09/22 00:39:52;;;;;;;;;;;;;;;9.38;96.62;99591.27;112109;1195;61084;-86
2021/09/22 00:42:19;;;;;;;;;;;;;;;9.37;96.66;99588.45;112141;1195;65697;-86
2021/09/22 00:44:55;;;;;;;;;;;;;;;9.37;96.76;99583.17;112213;1196;61004;-84
2021/09/22 00:47:23;;;;;;;;;;;;;;;9.34;96.93;99575.66;112111;1196;64031;-84
2021/09/22 00:49:50;;;;;;;;;;;;;;;9.34;97.02;99573.19;112047;1195;61058;-84
2021/09/22 00:52:18;;;;;;;;;;;;;;;9.34;97.17;99572.48;112111;1195;61068;-86
2021/09/22 00:54:46;;;;;;;;;;;;;;;9.33;97.16;99571.46;112110;1195;65037;-84
2021/09/22 00:57:14;;;;;;;;;;;;;;;9.33;97.27;99562.79;112061;1196;61045;-84
2021/09/22 00:59:42;;;;;;;;;;;;;;;9.33;97.31;99566.70;112072;1196;64073;-84
2021/09/22 01:02:09;;;;;;;;;;;;;;;9.34;97.40;99564.68;112021;1196;61036;-82
2021/09/22 01:04:37;;;;;;;;;;;;;;;9.36;97.49;99565.11;112073;1195;61020;-82
2021/09/22 01:07:04;;;;;;;;;;;;;;;9.37;97.53;99560.27;111978;1196;64776;-84
2021/09/22 01:09:32;;;;;;;;;;;;;;;9.39;97.64;99554.84;112051;1196;61081;-85
2021/09/22 01:11:59;;;;;;;;;;;;;;;9.40;97.83;99556.37;112075;1196;63851;-82
2021/09/22 01:14:27;;;;;;;;;;;;;;;9.40;98.07;99556.59;112247;1196;61222;-82
2021/09/22 01:16:54;;;;;;;;;;;;;;;9.38;98.05;99551.90;112244;1195;61056;-82
2021/09/22 01:19:22;;;;;;;;;;;;;;;9.35;98.13;99549.02;112237;1195;65798;-82
2021/09/22 01:21:52;;;;;;;;;;;;;;;9.35;98.19;99545.85;112028;1195;61052;-82
2021/09/22 01:24:19;;;;;;;;;;;;;;;9.35;98.29;99538.77;112054;1195;64051;-82
2021/09/22 01:26:48;;;;;;;;;;;;;;;9.35;98.30;99533.77;112142;1195;60973;-82
2021/09/22 01:29:16;;;;;;;;;;;;;;;9.35;98.61;99532.39;112281;1195;61164;-82
2021/09/22 01:31:44;;;;;;;;;;;;;;;9.33;98.75;99530.89;112122;1196;64706;-82
2021/09/22 01:34:12;;;;;;;;;;;;;;;9.32;98.61;99531.80;112310;1196;61094;-82
2021/09/22 01:36:39;;;;;;;;;;;;;;;9.33;98.66;99528.23;112246;1195;65012;-82
2021/09/22 01:39:06;;;;;;;;;;;;;;;9.34;98.88;99528.17;112245;1196;61094;-82
2021/09/22 01:41:33;;;;;;;;;;;;;;;9.34;98.77;99528.52;112287;1195;61027;-82
2021/09/22 01:44:00;;;;;;;;;;;;;;;9.35;98.81;99527.70;112246;1194;64332;-82
2021/09/22 01:46:27;;;;;;;;;;;;;;;9.36;98.88;99526.09;112003;1195;60913;-82
2021/09/22 01:48:54;;;;;;;;;;;;;;;9.37;98.87;99524.10;112202;1196;64033;-82
2021/09/22 01:51:21;;;;;;;;;;;;;;;9.38;99.01;99523.17;112243;1195;60988;-82
2021/09/22 01:53:48;;;;;;;;;;;;;;;9.38;99.30;99528.86;112268;1195;60991;-82
2021/09/22 01:56:16;;;;;;;;;;;;;;;9.36;99.35;99526.98;112101;1195;66275;-81
2021/09/22 01:58:43;;;;;;;;;;;;;;;9.36;99.21;99528.77;112254;1195;61463;-81
2021/09/22 02:01:13;;;;;;;;;;;;;;;9.36;99.06;99521.87;112260;1196;62981;-81
2021/09/22 02:03:41;;;;;;;;;;;;;;;9.34;98.85;99521.09;112261;1196;61059;-81
2021/09/22 02:06:09;;;;;;;;;;;;;;;9.31;98.68;99522.45;112046;1195;61161;-81
2021/09/22 02:08:39;;;;;;;;;;;;;;;9.29;98.74;99521.31;112241;1196;66026;-81
2021/09/22 02:11:06;;;;;;;;;;;;;;;9.27;98.62;99518.43;112248;1195;61068;-81
2021/09/22 02:13:34;;;;;;;;;;;;;;;9.25;98.69;99518.89;112229;1196;62583;-81
2021/09/22 02:16:02;;;;;;;;;;;;;;;9.24;98.59;99512.54;112251;1194;61107;-81
2021/09/22 02:18:29;;;;;;;;;;;;;;;9.22;98.44;99510.51;112244;1195;61045;-81
2021/09/22 02:20:56;;;;;;;;;;;;;;;9.19;98.40;99509.80;112271;1196;65841;-81
2021/09/22 02:23:24;;;;;;;;;;;;;;;9.15;98.26;99508.60;112307;1195;61072;-81
2021/09/22 02:25:51;;;;;;;;;;;;;;;9.13;98.36;99506.95;112001;1195;62642;-81
2021/09/22 02:28:19;;;;;;;;;;;;;;;9.08;98.19;99505.77;112266;1195;61005;-81
2021/09/22 02:30:46;;;;;;;;;;;;;;;9.02;98.01;99505.36;112028;1195;61226;-81
2021/09/22 02:33:13;;;;;;;;;;;;;;;8.99;98.01;99505.02;112221;1195;65703;-83
2021/09/22 02:35:40;;;;;;;;;;;;;;;8.97;98.09;99505.48;112281;1196;61004;-81
2021/09/22 02:38:08;;;;;;;;;;;;;;;8.97;98.25;99504.93;112268;1196;63790;-81
2021/09/22 02:40:35;;;;;;;;;;;;;;;8.96;98.38;99503.38;112305;1195;61022;-81
2021/09/22 02:43:03;;;;;;;;;;;;;;;8.95;98.48;99500.42;112092;1196;61078;-81
2021/09/22 02:45:30;;;;;;;;;;;;;;;8.94;98.50;99500.46;112044;1195;65906;-81
2021/09/22 02:47:57;;;;;;;;;;;;;;;8.94;98.66;99496.23;112246;1194;61033;-81
2021/09/22 02:50:24;;;;;;;;;;;;;;;8.94;98.79;99494.45;111994;1195;64143;-81
2021/09/22 02:52:51;;;;;;;;;;;;;;;8.93;98.73;99489.19;112267;1196;61054;-81
2021/09/22 02:55:18;;;;;;;;;;;;;;;8.94;98.74;99487.02;112276;1196;61163;-81
2021/09/22 02:57:46;;;;;;;;;;;;;;;8.94;98.71;99484.36;112232;1196;67117;-81
2021/09/22 03:00:13;;;;;;;;;;;;;;;8.94;98.67;99481.86;112042;1195;61073;-81
2021/09/22 03:02:40;;;;;;;;;;;;;;;8.93;98.59;99479.10;112260;1196;62804;-81
2021/09/22 03:05:08;;;;;;;;;;;;;;;8.91;98.58;99485.22;112055;1195;61007;-83
2021/09/22 03:07:35;;;;;;;;;;;;;;;8.90;98.65;99482.23;112221;1195;61054;-81
2021/09/22 03:10:03;;;;;;;;;;;;;;;8.91;98.68;99482.20;112229;1194;66174;-83
2021/09/22 03:12:31;;;;;;;;;;;;;;;8.91;98.61;99481.83;112270;1195;61139;-81
2021/09/22 03:14:59;;;;;;;;;;;;;;;8.92;98.63;99479.13;112210;1194;64007;-82
2021/09/22 03:17:27;;;;;;;;;;;;;;;8.97;98.84;99474.98;112251;1194;61036;-82
2021/09/22 03:19:54;;;;;;;;;;;;;;;9.02;98.74;99470.65;112285;1196;61048;-83
2021/09/22 03:22:22;;;;;;;;;;;;;;;9.04;98.76;99470.05;112008;1195;66123;-83
2021/09/22 03:24:50;;;;;;;;;;;;;;;9.05;98.77;99465.17;112283;1196;61052;-83
2021/09/22 03:27:17;;;;;;;;;;;;;;;9.06;98.89;99465.98;112208;1196;64062;-82
2021/09/22 03:29:45;;;;;;;;;;;;;;;9.07;98.87;99462.92;112229;1195;61035;-81
2021/09/22 03:32:12;;;;;;;;;;;;;;;9.08;98.69;99464.30;112172;1195;60981;-80
2021/09/22 03:34:39;;;;;;;;;;;;;;;9.08;98.72;99460.58;112352;1195;64742;-83
2021/09/22 03:37:07;;;;;;;;;;;;;;;9.08;98.64;99458.13;112266;1195;60991;-83
2021/09/22 03:39:34;;;;;;;;;;;;;;;9.10;98.66;99456.57;112253;1195;63730;-83
2021/09/22 03:42:01;;;;;;;;;;;;;;;9.10;98.47;99462.77;112370;1196;61059;-85
2021/09/22 03:44:28;;;;;;;;;;;;;;;9.10;98.56;99460.50;112295;1195;61048;-84
2021/09/22 03:46:56;;;;;;;;;;;;;;;9.07;98.35;99459.20;112229;1196;64789;-83
2021/09/22 03:49:23;;;;;;;;;;;;;;;9.05;98.30;99459.67;112210;1196;61078;-84
2021/09/22 03:51:51;;;;;;;;;;;;;;;9.05;98.47;99460.04;112266;1196;64014;-83
2021/09/22 03:54:18;;;;;;;;;;;;;;;9.05;98.40;99458.29;112211;1196;60986;-81
2021/09/22 03:56:46;;;;;;;;;;;;;;;9.04;98.60;99460.96;112235;1196;60991;-81
2021/09/22 03:59:14;;;;;;;;;;;;;;;9.06;98.62;99457.67;112263;1196;65757;-82
2021/09/22 04:01:41;;;;;;;;;;;;;;;9.05;98.46;99452.94;112148;1195;61055;-84
2021/09/22 04:04:08;;;;;;;;;;;;;;;9.05;98.36;99454.04;111954;1195;64030;-82
2021/09/22 04:06:35;;;;;;;;;;;;;;;9.06;98.54;99460.34;112005;1195;61046;-82
2021/09/22 04:09:03;;;;;;;;;;;;;;;9.10;98.64;99461.87;112249;1194;61032;-82
2021/09/22 04:11:30;;;;;;;;;;;;;;;9.12;98.60;99456.27;112084;1195;66113;-82
2021/09/22 04:13:57;;;;;;;;;;;;;;;9.14;98.58;99451.73;112285;1195;61180;-82
2021/09/22 04:16:23;;;;;;;;;;;;;;;9.14;98.50;99454.22;112213;1195;62578;-82
2021/09/22 04:18:50;;;;;;;;;;;;;;;9.15;98.51;99460.20;112248;1195;61227;-82
2021/09/22 04:21:17;;;;;;;;;;;;;;;9.17;98.65;99460.26;112262;1195;60947;-82
2021/09/22 04:23:43;;;;;;;;;;;;;;;9.18;98.53;99457.36;112246;1195;65670;-82
2021/09/22 04:26:10;;;;;;;;;;;;;;;9.17;98.57;99452.47;112045;1195;61092;-82
2021/09/22 04:28:36;;;;;;;;;;;;;;;9.16;98.70;99452.88;112238;1196;64968;-82
2021/09/22 04:31:03;;;;;;;;;;;;;;;9.14;98.68;99453.69;112204;1195;61055;-82
2021/09/22 04:33:29;;;;;;;;;;;;;;;9.11;98.65;99453.13;112107;1195;61110;-82
2021/09/22 04:35:56;;;;;;;;;;;;;;;9.12;98.74;99458.77;112197;1196;60968;-82
2021/09/22 04:38:23;;;;;;;;;;;;;;;9.14;98.76;99460.59;112291;1196;60982;-82
2021/09/22 04:40:50;;;;;;;;;;;;;;;9.16;98.72;99461.04;112247;1195;64019;-82
2021/09/22 04:43:17;;;;;;;;;;;;;;;9.17;98.68;99460.27;112171;1195;61056;-82
2021/09/22 04:45:45;;;;;;;;;;;;;;;9.19;98.73;99462.64;112219;1195;60960;-82
2021/09/22 04:48:12;;;;;;;;;;;;;;;9.21;98.66;99467.66;112257;1195;67099;-81
2021/09/22 04:50:39;;;;;;;;;;;;;;;9.24;98.53;99470.91;112296;1196;61008;-82
2021/09/22 04:53:05;;;;;;;;;;;;;;;9.26;98.53;99466.02;112229;1195;64032;-81
2021/09/22 04:55:32;;;;;;;;;;;;;;;9.28;98.51;99469.05;112222;1195;61151;-81
2021/09/22 04:57:59;;;;;;;;;;;;;;;9.31;98.57;99469.25;112264;1196;60965;-81
2021/09/22 05:00:25;;;;;;;;;;;;;;;9.37;98.51;99467.00;112248;1195;64776;-82
2021/09/22 05:02:52;;;;;;;;;;;;;;;9.38;98.32;99465.69;112275;1195;61056;-83
2021/09/22 05:05:18;;;;;;;;;;;;;;;9.37;98.23;99465.06;112168;1196;61046;-84
2021/09/22 05:07:45;;;;;;;;;;;;;;;9.33;98.13;99459.77;112248;1196;61049;-84
2021/09/22 05:10:11;;;;;;;;;;;;;;;9.34;98.29;99462.52;112246;1195;60979;-84
2021/09/22 05:12:38;;;;;;;;;;;;;;;9.36;98.12;99465.98;112178;1195;60968;-84
2021/09/22 05:15:06;;;;;;;;;;;;;;;9.36;98.10;99466.69;112248;1196;61033;-82
2021/09/22 05:17:32;;;;;;;;;;;;;;;9.34;98.02;99468.91;112071;1195;63648;-84
2021/09/22 05:19:59;;;;;;;;;;;;;;;9.35;98.00;99469.57;112228;1195;61472;-83
2021/09/22 05:22:25;;;;;;;;;;;;;;;9.37;97.87;99474.98;112253;1196;61055;-84
2021/09/22 05:24:52;;;;;;;;;;;;;;;9.37;97.65;99480.30;112266;1195;65685;-83
2021/09/22 05:27:19;;;;;;;;;;;;;;;9.40;97.79;99484.72;112257;1196;60943;-84
2021/09/22 05:29:45;;;;;;;;;;;;;;;9.46;97.73;99484.08;112210;1195;64069;-84
2021/09/22 05:32:13;;;;;;;;;;;;;;;9.50;97.67;99483.67;112240;1194;61011;-84
2021/09/22 05:34:39;;;;;;;;;;;;;;;9.56;97.59;99484.58;112240;1195;61051;-84
2021/09/22 05:37:06;;;;;;;;;;;;;;;9.67;97.53;99481.84;112242;1195;65988;-84
2021/09/22 05:39:32;;;;;;;;;;;;;;;9.78;97.23;99484.79;112270;1196;61033;-84
2021/09/22 05:41:59;;;;;;;;;;;;;;;9.87;96.95;99485.70;112216;1196;65346;-84
2021/09/22 05:44:25;;;;;;;;;;;;;;;9.97;96.84;99491.55;112247;1196;61068;-84
2021/09/22 05:46:52;;;;;;;;;;;;;;;10.02;96.58;99496.73;112258;1195;61414;-84
2021/09/22 05:49:18;;;;;;;;;;;;;;;10.00;96.33;99499.88;112231;1195;66189;-84
2021/09/22 05:51:45;;;;;;;;;;;;;;;10.02;96.47;99501.36;112241;1195;61491;-82
2021/09/22 05:54:12;;;;;;;;;;;;;;;10.03;96.26;99502.38;112246;1196;63998;-82
2021/09/22 05:56:39;;;;;;;;;;;;;;;10.02;96.09;99499.77;112256;1195;61018;-85
2021/09/22 05:59:06;;;;;;;;;;;;;;;10.01;95.93;99497.67;112262;1195;60995;-82
2021/09/22 06:01:32;;;;;;;;;;;;;;;10.02;95.85;99498.67;112213;1196;61055;-82
2021/09/22 06:03:59;;;;;;;;;;;;;;;10.10;95.56;99497.00;112271;1194;61029;-82
2021/09/22 06:06:25;;;;;;;;;;;;;;;10.13;95.30;99498.26;112223;1195;61051;-82
2021/09/22 06:08:52;;;;;;;;;;;;;;;10.11;95.20;99497.11;112017;1195;61056;-82
2021/09/22 06:11:19;;;;;;;;;;;;;;;10.08;95.11;99499.43;112216;1196;61084;-86
2021/09/22 06:13:49;;;;;;;;;;;;;;;10.09;95.34;99500.25;112227;1196;64930;-82
2021/09/22 06:16:15;;;;;;;;;;;;;;;10.07;95.21;99503.57;112272;1195;60998;-83
2021/09/22 06:18:42;;;;;;;;;;;;;;;9.97;95.17;99504.67;112228;1195;63689;-82
2021/09/22 06:21:08;;;;;;;;;;;;;;;9.90;95.44;99502.21;112215;1195;61004;-83
2021/09/22 06:23:35;;;;;;;;;;;;;;;9.82;94.83;99504.62;112236;1195;61061;-83
2021/09/22 06:26:01;;;;;;;;;;;;;;;9.73;95.25;99507.23;112216;1195;66065;-83
2021/09/22 06:28:28;;;;;;;;;;;;;;;9.70;95.58;99509.70;112013;1196;61082;-82
2021/09/22 06:30:54;;;;;;;;;;;;;;;9.68;95.47;99517.10;112320;1196;62718;-84
2021/09/22 06:33:21;;;;;;;;;;;;;;;9.71;95.70;99516.23;112273;1196;61059;-82
2021/09/22 06:35:47;;;;;;;;;;;;;;;9.77;95.73;99509.16;112237;1195;61011;-85
2021/09/22 06:38:14;;;;;;;;;;;;;;;9.89;95.84;99508.67;112361;1196;64692;-82
2021/09/22 06:40:41;;;;;;;;;;;;;;;10.02;95.30;99508.66;112319;1196;61053;-85
2021/09/22 06:43:07;;;;;;;;;;;;;;;10.14;94.87;99512.05;112298;1195;62679;-83
2021/09/22 06:45:34;;;;;;;;;;;;;;;10.33;94.65;99507.61;112211;1196;61043;-86
2021/09/22 06:48:01;;;;;;;;;;;;;;;10.56;94.32;99504.66;112244;1195;60985;-85
2021/09/22 06:50:29;;;;;;;;;;;;;;;10.79;94.00;99505.45;112242;1194;60950;-84
2021/09/22 06:52:56;;;;;;;;;;;;;;;10.97;93.51;99509.53;112330;1196;61019;-84
2021/09/22 06:55:22;;;;;;;;;;;;;;;11.14;93.30;99508.64;112251;1195;62632;-85
2021/09/22 06:57:49;;;;;;;;;;;;;;;11.30;93.00;99509.95;112252;1195;61093;-84
2021/09/22 07:00:16;;;;;;;;;;;;;;;11.43;92.15;99510.79;112277;1195;61054;-83
2021/09/22 07:02:43;;;;;;;;;;;;;;;11.51;91.69;99513.17;112288;1195;66076;-82
2021/09/22 07:05:10;;;;;;;;;;;;;;;11.53;91.00;99516.73;112221;1195;61068;-83
2021/09/22 07:07:37;;;;;;;;;;;;;;;11.46;90.71;99524.13;112240;1196;63788;-83
2021/09/22 07:10:04;;;;;;;;;;;;;;;11.41;90.73;99526.42;112218;1195;61024;-82
2021/09/22 07:12:31;;;;;;;;;;;;;;;11.35;90.73;99527.66;112240;1196;60986;-82
2021/09/22 07:14:58;;;;;;;;;;;;;;;11.26;90.83;99527.52;112237;1195;66022;-83
2021/09/22 07:17:25;;;;;;;;;;;;;;;11.17;91.02;99525.41;112252;1196;60976;-83
2021/09/22 07:19:51;;;;;;;;;;;;;;;11.03;90.92;99524.66;112265;1196;63674;-83
2021/09/22 07:22:18;;;;;;;;;;;;;;;10.88;91.05;99526.08;112237;1195;61386;-85
2021/09/22 07:24:44;;;;;;;;;;;;;;;10.81;91.20;99520.46;112269;1196;60961;-82
2021/09/22 07:27:11;;;;;;;;;;;;;;;10.81;91.46;99524.02;112192;1195;60975;-83
2021/09/22 07:29:37;;;;;;;;;;;;;;;10.81;91.06;99519.92;112288;1196;61049;-83
2021/09/22 07:32:07;;;;;;;;;;;;;;;10.79;91.09;99523.75;112252;1196;61075;-82
2021/09/22 07:34:34;;;;;;;;;;;;;;;10.74;90.50;99522.27;112243;1195;61048;-84
2021/09/22 07:37:06;;;;;;;;;;;;;;;10.71;90.97;99525.98;112245;1195;61036;-83
2021/09/22 07:39:37;;;;;;;;;;;;;;;10.83;90.99;99528.48;112287;1196;66022;-83
2021/09/22 07:42:03;;;;;;;;;;;;;;;11.04;90.26;99533.12;112295;1196;61074;-84
2021/09/22 07:44:30;;;;;;;;;;;;;;;11.20;89.92;99541.02;112288;1197;63681;-84
2021/09/22 07:46:57;;;;;;;;;;;;;;;11.42;90.02;99545.77;112260;1195;61062;-84
2021/09/22 07:49:23;;;;;;;;;;;;;;;11.67;89.58;99544.73;112259;1196;60963;-83
2021/09/22 07:51:50;;;;;;;;;;;;;;;11.86;88.36;99548.73;112218;1196;60950;-83
2021/09/22 07:54:16;;;;;;;;;;;;;;;12.03;88.45;99550.14;112267;1194;61068;-83
2021/09/22 07:56:43;;;;;;;;;;;;;;;12.12;87.93;99552.04;112236;1196;64034;-83
2021/09/22 07:59:09;;;;;;;;;;;;;;;12.13;88.17;99551.47;112138;1196;61141;-83
2021/09/22 08:01:36;;;;;;;;;;;;;;;12.07;88.16;99554.49;112227;1195;60962;-83
2021/09/22 08:04:03;;;;;;;;;;;;;;;11.97;87.87;99554.44;112223;1196;60931;-83
2021/09/22 08:06:30;;;;;;;;;;;;;;;11.88;88.03;99556.77;112273;1195;60969;-83
2021/09/22 08:08:56;;;;;;;;;;;;;;;11.77;87.99;99558.73;112256;1196;61055;-83
2021/09/22 08:11:23;;;;;;;;;;;;;;;11.62;88.33;99561.23;112139;1196;61100;-84
2021/09/22 08:13:49;;;;;;;;;;;;;;;11.50;88.36;99564.27;112219;1196;61106;-84
2021/09/22 08:16:16;;;;;;;;;;;;;;;11.36;88.04;99568.87;112234;1195;67013;-84
2021/09/22 08:18:46;;;;;;;;;;;;;;;11.22;87.77;99570.27;112285;1196;61052;-84
2021/09/22 08:21:13;;;;;;;;;;;;;;;11.10;87.66;99571.15;112210;1196;63823;-84
2021/09/22 08:23:40;;;;;;;;;;;;;;;11.02;87.99;99574.31;112211;1196;60953;-84
2021/09/22 08:26:07;;;;;;;;;;;;;;;10.95;88.28;99570.06;112252;1195;60954;-84
2021/09/22 08:28:34;;;;;;;;;;;;;;;10.93;88.04;99572.55;112235;1195;66097;-84
2021/09/22 08:31:00;;;;;;;;;;;;;;;10.95;88.14;99574.02;112230;1195;61082;-83
2021/09/22 08:33:27;;;;;;;;;;;;;;;10.99;88.00;99572.68;112270;1196;62612;-83
2021/09/22 08:35:53;;;;;;;;;;;;;;;11.10;88.10;99573.10;112198;1195;61084;-83
2021/09/22 08:38:20;;;;;;;;;;;;;;;11.21;87.89;99571.20;112226;1195;60954;-83
2021/09/22 08:40:47;;;;;;;;;;;;;;;11.27;87.79;99570.35;112262;1195;65891;-84
2021/09/22 08:43:14;;;;;;;;;;;;;;;11.31;87.99;99570.23;112222;1196;61075;-84
2021/09/22 08:45:41;;;;;;;;;;;;;;;11.40;87.97;99573.79;112205;1196;64107;-83
2021/09/22 08:48:09;;;;;;;;;;;;;;;11.50;87.83;99573.02;112239;1196;61078;-83
2021/09/22 08:50:36;;;;;;;;;;;;;;;11.51;87.50;99578.10;112422;1195;61004;-82
2021/09/22 08:53:02;;;;;;;;;;;;;;;11.43;87.20;99577.02;112460;1196;64666;-87
2021/09/22 08:55:29;;;;;;;;;;;;;;;11.30;87.33;99578.11;112247;1196;61040;-83
2021/09/22 08:57:55;;;;;;;;;;;;;;;11.23;87.71;99576.09;112145;1196;64144;-84
2021/09/22 09:00:22;;;;;;;;;;;;;;;11.16;87.69;99578.65;112134;1196;61138;-84
2021/09/22 09:02:48;;;;;;;;;;;;;;;11.11;87.76;99577.50;112179;1196;61052;-82
2021/09/22 09:05:17;;;;;;;;;;;;;;;11.20;87.85;99578.23;112214;1196;64688;-87
2021/09/22 09:07:49;;;;;;;;;;;;;;;11.44;87.75;99574.98;112242;1196;61068;-87
2021/09/22 09:10:17;;;;;;;;;;;;;;;11.75;87.31;99575.58;112230;1195;63942;-85
2021/09/22 09:12:44;;;;;;;;;;;;;;;11.99;86.63;99579.80;112167;1195;60997;-85
2021/09/22 09:15:13;;;;;;;;;;;;;;;12.09;86.33;99581.98;112206;1196;61071;-87
2021/09/22 09:17:45;;;;;;;;;;;;;;;12.20;86.20;99584.69;112213;1197;66038;-90
2021/09/22 09:20:13;;;;;;;;;;;;;;;12.30;85.61;99579.75;112278;1197;61074;-90
2021/09/22 09:22:40;;;;;;;;;;;;;;;12.35;85.00;99581.77;112195;1197;64056;-88
2021/09/22 09:25:07;;;;;;;;;;;;;;;12.34;84.71;99582.33;112201;1196;61154;-88
2021/09/22 09:27:35;;;;;;;;;;;;;;;12.37;84.51;99584.67;111988;1196;61108;-86
2021/09/22 09:30:18;;;;;;;;;;;;;;;12.47;84.82;99580.06;112291;1196;66081;-92
2021/09/22 09:32:45;;;;;;;;;;;;;;;12.65;83.86;99575.88;113180;1195;60959;-85
2021/09/22 09:35:16;;;;;;;;;;;;;;;12.82;83.64;99571.34;112257;1196;61010;-84
2021/09/22 09:37:46;;;;;;;;;;;;;;;12.94;82.80;99568.05;112291;1196;62909;-86
2021/09/22 09:40:25;;;;;;;;;;;;;;;12.98;82.78;99568.11;112508;1196;61059;-85
2021/09/22 09:42:56;;;;;;;;;;;;;;;13.08;82.56;99568.19;112240;1196;65832;-85
2021/09/22 09:45:23;;;;;;;;;;;;;;;13.11;82.18;99562.25;112267;1196;61068;-86
2021/09/22 09:47:59;;;;;;;;;;;;;;;13.11;82.11;99565.10;112236;1196;63818;-86
2021/09/22 09:50:26;;;;;;;;;;;;;;;13.10;81.77;99569.10;112220;1194;61078;-84
2021/09/22 09:52:54;;;;;;;;;;;;;;;13.03;81.56;99572.42;112273;1195;61014;-85
2021/09/22 09:55:23;;;;;;;;;;;;;;;12.96;80.80;99573.42;112261;1195;64686;-85
2021/09/22 09:57:50;;;;;;;;;;;;;;;12.94;80.51;99578.02;112257;1196;61120;-85
2021/09/22 10:00:21;;;;;;;;;;;;;;;13.01;79.66;99576.48;112222;1196;63955;-85
2021/09/22 10:02:48;;;;;;;;;;;;;;;13.21;79.46;99573.57;112218;1196;61058;-85
2021/09/22 10:05:15;;;;;;;;;;;;;;;13.49;78.99;99574.13;112261;1194;61052;-85
2021/09/22 10:07:42;;;;;;;;;;;;;;;13.68;77.37;99570.81;112307;1197;60943;-85
2021/09/22 10:10:08;;;;;;;;;;;;;;;13.69;76.47;99571.29;112295;1195;61408;-85
2021/09/22 10:12:36;;;;;;;;;;;;;;;13.65;76.01;99569.95;112243;1196;64017;-84
2021/09/22 10:15:03;;;;;;;;;;;;;;;13.49;75.87;99572.31;112276;1195;61040;-84
2021/09/22 10:17:32;;;;;;;;;;;;;;;13.44;76.33;99571.46;112191;1196;61059;-84
2021/09/22 10:19:59;;;;;;;;;;;;;;;13.51;75.98;99571.83;112264;1196;66043;-84
2021/09/22 10:22:26;;;;;;;;;;;;;;;13.74;76.61;99574.89;112212;1195;60957;-84
2021/09/22 10:24:54;;;;;;;;;;;;;;;14.04;76.00;99568.77;112249;1195;63715;-84
2021/09/22 10:27:23;;;;;;;;;;;;;;;14.22;74.96;99567.08;112293;1195;61058;-84
2021/09/22 10:30:02;;;;;;;;;;;;;;;14.41;74.89;99565.70;112616;1195;61062;-85
2021/09/22 10:32:36;;;;;;;;;;;;;;;14.52;74.93;99567.80;112434;1197;64696;-85
2021/09/22 10:35:22;;;;;;;;;;;;;;;14.40;74.60;99571.52;112322;1196;61023;-85
2021/09/22 10:37:48;;;;;;;;;;;;;;;14.14;74.60;99572.77;112303;1197;64036;-86
2021/09/22 10:40:18;;;;;;;;;;;;;;;13.81;73.61;99574.36;112258;1196;61161;-83
2021/09/22 10:42:45;;;;;;;;;;;;;;;13.47;74.22;99577.48;112248;1195;61040;-84
2021/09/22 10:45:12;;;;;;;;;;;;;;;13.25;74.77;99581.29;112264;1196;64328;-84
2021/09/22 10:47:39;;;;;;;;;;;;;;;13.12;75.26;99583.96;112223;1195;61119;-84
2021/09/22 10:50:06;;;;;;;;;;;;;;;13.05;74.69;99585.33;112233;1195;64112;-83
2021/09/22 10:52:38;;;;;;;;;;;;;;;13.03;74.84;99583.63;112237;1196;60939;-84
2021/09/22 10:55:04;;;;;;;;;;;;;;;12.99;74.75;99584.11;112238;1195;61008;-83
2021/09/22 10:57:31;;;;;;;;;;;;;;;12.92;75.06;99586.36;112253;1195;60936;-83
2021/09/22 11:00:07;;;;;;;;;;;;;;;12.88;75.60;99583.27;112237;1197;61024;-85
2021/09/22 11:02:42;;;;;;;;;;;;;;;12.83;75.76;99582.52;112241;1195;62432;-85
2021/09/22 11:05:10;;;;;;;;;;;;;;;12.79;75.85;99584.77;112308;1195;61114;-86
2021/09/22 11:07:58;;;;;;;;;;;;;;;12.76;75.93;99582.45;112231;1196;61011;-83
2021/09/22 11:10:46;;;;;;;;;;;;;;;12.80;76.12;99584.66;112283;1197;66032;-83
2021/09/22 11:13:19;;;;;;;;;;;;;;;12.93;76.36;99583.59;112260;1196;61135;-84
2021/09/22 11:15:46;;;;;;;;;;;;;;;13.00;75.83;99586.35;112218;1197;64108;-84
2021/09/22 11:18:15;;;;;;;;;;;;;;;13.07;76.03;99584.48;112317;1197;61098;-83
2021/09/22 11:20:50;;;;;;;;;;;;;;;13.21;76.19;99584.41;112251;1195;61037;-84
2021/09/22 11:23:17;;;;;;;;;;;;;;;13.38;76.18;99581.65;112205;1196;65881;-84
2021/09/22 11:25:43;;;;;;;;;;;;;;;13.47;75.77;99581.19;112238;1195;60957;-84
2021/09/22 11:28:10;;;;;;;;;;;;;;;13.49;76.23;99580.91;112282;1196;62772;-85
2021/09/22 11:30:36;;;;;;;;;;;;;;;13.45;75.76;99582.41;112245;1196;61087;-84
2021/09/22 11:33:03;;;;;;;;;;;;;;;13.34;75.70;99585.36;112286;1196;60976;-84
2021/09/22 11:35:30;;;;;;;;;;;;;;;13.21;75.75;99584.36;112241;1197;60957;-84
2021/09/22 11:37:58;;;;;;;;;;;;;;;13.09;75.38;99584.64;112217;1197;61058;-84
2021/09/22 11:40:32;;;;;;;;;;;;;;;13.02;75.54;99587.11;112256;1195;62727;-84
2021/09/22 11:42:59;;;;;;;;;;;;;;;12.97;75.68;99587.09;112224;1196;61023;-84
2021/09/22 11:45:32;;;;;;;;;;;;;;;12.87;75.29;99587.01;112285;1195;60936;-84
2021/09/22 11:47:59;;;;;;;;;;;;;;;12.76;75.09;99586.91;112294;1196;64672;-85
2021/09/22 11:50:31;;;;;;;;;;;;;;;12.66;75.26;99591.49;112202;1195;60960;-84
2021/09/22 11:52:58;;;;;;;;;;;;;;;12.58;75.19;99593.65;112212;1197;62663;-85
2021/09/22 11:55:25;;;;;;;;;;;;;;;12.49;75.50;99596.67;112216;1196;61058;-85
2021/09/22 11:57:52;;;;;;;;;;;;;;;12.47;76.05;99599.10;112281;1195;61036;-85
2021/09/22 12:00:20;;;;;;;;;;;;;;;12.52;76.68;99600.06;112240;1195;65000;-84
2021/09/22 12:02:47;;;;;;;;;;;;;;;12.59;77.15;99601.77;112272;1195;61068;-86
2021/09/22 12:05:14;;;;;;;;;;;;;;;12.66;77.59;99602.33;112264;1196;62442;-84
2021/09/22 12:07:41;;;;;;;;;;;;;;;12.72;77.16;99601.73;112281;1196;61031;-84
2021/09/22 12:10:08;;;;;;;;;;;;;;;12.78;76.92;99599.28;112250;1197;61091;-84
2021/09/22 12:12:37;;;;;;;;;;;;;;;12.81;76.62;99601.73;112237;1195;65807;-83
2021/09/22 12:15:05;;;;;;;;;;;;;;;12.87;75.97;99601.67;112286;1195;60985;-84
2021/09/22 12:17:33;;;;;;;;;;;;;;;12.93;75.71;99600.77;112242;1195;62658;-84
2021/09/22 12:20:00;;;;;;;;;;;;;;;12.98;75.95;99607.57;112295;1195;61084;-85
2021/09/22 12:22:28;;;;;;;;;;;;;;;13.02;75.57;99610.10;112218;1196;61065;-84
2021/09/22 12:24:55;;;;;;;;;;;;;;;13.02;75.02;99611.17;112285;1195;64782;-85
2021/09/22 12:27:22;;;;;;;;;;;;;;;13.02;74.58;99609.77;112257;1196;61004;-84
2021/09/22 12:29:58;;;;;;;;;;;;;;;13.03;74.47;99608.86;112272;1195;62674;-86
2021/09/22 12:32:26;;;;;;;;;;;;;;;13.06;74.93;99608.10;112431;1195;61062;-83
2021/09/22 12:34:52;;;;;;;;;;;;;;;13.08;75.15;99602.90;112334;1194;60950;-81
2021/09/22 12:37:21;;;;;;;;;;;;;;;13.12;75.37;99608.03;112371;1195;65711;-83
2021/09/22 12:39:56;;;;;;;;;;;;;;;13.10;74.73;99612.63;112465;1196;60984;-86
2021/09/22 12:42:24;;;;;;;;;;;;;;;12.98;74.50;99616.80;112248;1195;62718;-87